Time;durP1;ratioP1;P1;durP2;ratioP2;P2;SDS_P1;SDS_P2;PMS_P1;PMS_P2;Temp;Humidity;BMP_temperature;BMP_pressure;BME280_temperature;BME280_humidity;BME280_pressure;Samples;Min_cycle;Max_cycle;Signal;HPM_P1;HPM_P2
2022/08/29 00:00:16;;;;;;;21.43;17.07;;;18.20;41.20;;;;;;5083083;28;20445;-67
2022/08/29 00:02:44;;;;;;;23.50;18.93;;;18.20;41.30;;;;;;5086749;28;20452;-69
2022/08/29 00:05:11;;;;;;;25.10;19.50;;;18.10;41.50;;;;;;5088924;28;20452;-67
2022/08/29 00:07:38;;;;;;;25.27;18.13;;;18.10;41.50;;;;;;5083997;28;20982;-67
2022/08/29 00:10:06;;;;;;;21.57;18.37;;;18.10;41.50;;;;;;5077114;28;20452;-67
2022/08/29 00:12:33;;;;;;;23.70;17.97;;;18.10;41.60;;;;;;5085735;28;20452;-67
2022/08/29 00:15:00;;;;;;;21.90;17.83;;;18.00;41.80;;;;;;5085633;28;20452;-67
2022/08/29 00:17:28;;;;;;;18.67;16.67;;;18.00;42.00;;;;;;5080677;28;20472;-67
2022/08/29 00:19:55;;;;;;;21.30;17.70;;;17.90;42.10;;;;;;5079327;28;20588;-68
2022/08/29 00:22:22;;;;;;;21.53;17.10;;;17.90;42.30;;;;;;5080953;28;20457;-68
2022/08/29 00:24:49;;;;;;;21.20;17.30;;;17.90;42.30;;;;;;5089940;28;20459;-67
2022/08/29 00:27:16;;;;;;;20.23;17.30;;;17.90;42.40;;;;;;5084708;28;20472;-68
2022/08/29 00:29:43;;;;;;;22.27;18.07;;;17.90;42.40;;;;;;5079367;28;20832;-67
2022/08/29 00:32:10;;;;;;;20.47;16.57;;;17.80;42.30;;;;;;5084031;28;20476;-68
2022/08/29 00:34:38;;;;;;;18.30;15.97;;;17.90;42.70;;;;;;5090669;28;20452;-67
2022/08/29 00:37:05;;;;;;;19.90;16.07;;;17.80;42.50;;;;;;5083561;28;20558;-67
2022/08/29 00:39:32;;;;;;;22.20;16.37;;;17.80;42.60;;;;;;5086515;28;20519;-68
2022/08/29 00:41:59;;;;;;;20.00;16.60;;;17.70;42.50;;;;;;5082670;28;20971;-68
2022/08/29 00:44:27;;;;;;;20.53;16.57;;;17.70;42.50;;;;;;5083944;28;20524;-67
2022/08/29 00:46:57;;;;;;;23.40;15.47;;;17.70;42.80;;;;;;5082642;28;20536;-68
2022/08/29 00:49:34;;;;;;;18.10;15.60;;;17.70;42.30;;;;;;5081109;28;20837;-68
2022/08/29 00:52:07;;;;;;;22.13;17.20;;;17.70;42.40;;;;;;5082240;28;20968;-70
2022/08/29 00:54:36;;;;;;;19.90;17.70;;;17.70;42.30;;;;;;5084814;28;20454;-68
2022/08/29 00:57:02;;;;;;;22.20;19.10;;;17.70;42.20;;;;;;5082722;28;20477;-68
2022/08/29 00:59:34;;;;;;;22.80;18.33;;;17.60;42.20;;;;;;5083879;28;20968;-68
2022/08/29 01:02:02;;;;;;;19.97;17.53;;;17.60;42.20;;;;;;5082227;28;20871;-68
2022/08/29 01:04:30;;;;;;;20.53;16.73;;;17.60;42.30;;;;;;5081836;28;20517;-67
2022/08/29 01:06:57;;;;;;;19.30;16.60;;;17.60;42.30;;;;;;5085207;28;20475;-68
2022/08/29 01:09:27;;;;;;;22.50;17.53;;;17.60;42.10;;;;;;5083120;28;20514;-67
2022/08/29 01:14:39;;;;;;;21.37;18.27;;;17.50;42.10;;;;;;5083156;28;20466;-67
2022/08/29 01:17:09;;;;;;;21.67;17.20;;;17.50;42.00;;;;;;5081441;28;21068;-70
2022/08/29 01:19:43;;;;;;;23.43;17.03;;;17.50;42.10;;;;;;5086298;28;20471;-66
2022/08/29 01:22:36;;;;;;;23.60;17.50;;;17.40;42.10;;;;;;5086666;28;20457;-67
2022/08/29 01:25:08;;;;;;;20.23;16.50;;;17.40;42.10;;;;;;5086344;28;20456;-66
2022/08/29 01:27:39;;;;;;;19.63;16.37;;;17.40;42.10;;;;;;5085072;28;20464;-67
2022/08/29 01:30:08;;;;;;;21.13;17.77;;;17.40;42.00;;;;;;5083249;28;20483;-67
2022/08/29 01:32:35;;;;;;;19.50;16.27;;;17.30;42.00;;;;;;5084827;28;20476;-68
2022/08/29 01:35:01;;;;;;;22.10;16.77;;;17.30;42.00;;;;;;5082464;28;20452;-67
2022/08/29 01:37:31;;;;;;;18.17;15.77;;;17.30;42.00;;;;;;5085237;28;21169;-68
2022/08/29 01:39:58;;;;;;;22.93;17.40;;;17.20;42.00;;;;;;5083805;28;20475;-68
2022/08/29 01:42:26;;;;;;;21.53;16.23;;;17.20;41.90;;;;;;5081126;28;20891;-67
2022/08/29 01:44:56;;;;;;;21.20;17.07;;;17.30;41.90;;;;;;5089690;28;20456;-67
2022/08/29 01:47:25;;;;;;;18.67;16.63;;;17.20;41.80;;;;;;5085790;28;20491;-68
2022/08/29 01:49:52;;;;;;;20.93;17.27;;;17.20;41.80;;;;;;5087591;28;20471;-67
2022/08/29 01:52:19;;;;;;;22.20;18.10;;;17.20;41.90;;;;;;5084954;28;20453;-67
2022/08/29 01:54:46;;;;;;;23.00;19.03;;;17.20;41.90;;;;;;5090223;28;20956;-67
2022/08/29 01:57:14;;;;;;;25.63;21.23;;;17.20;41.90;;;;;;5083424;28;21044;-67
2022/08/29 01:59:43;;;;;;;22.63;19.47;;;17.20;41.90;;;;;;5087072;28;20552;-67
2022/08/29 02:02:16;;;;;;;23.93;21.03;;;17.10;42.00;;;;;;5087517;28;20468;-67
2022/08/29 02:04:45;;;;;;;22.37;19.60;;;17.10;42.20;;;;;;5082043;28;20453;-67
2022/08/29 02:07:15;;;;;;;20.90;17.70;;;17.20;42.10;;;;;;5081881;28;20472;-69
2022/08/29 02:09:42;;;;;;;23.23;19.20;;;17.10;42.10;;;;;;5084998;28;20456;-67
2022/08/29 02:12:09;;;;;;;23.30;19.37;;;17.10;42.20;;;;;;5087077;28;20479;-69
2022/08/29 02:14:36;;;;;;;22.83;18.50;;;17.10;42.00;;;;;;5088235;28;20464;-68
2022/08/29 02:17:06;;;;;;;22.27;18.03;;;17.10;42.00;;;;;;5087237;28;20484;-68
2022/08/29 02:19:33;;;;;;;20.47;17.40;;;17.10;42.00;;;;;;5089298;28;20483;-67
2022/08/29 02:22:01;;;;;;;23.17;18.80;;;17.00;42.00;;;;;;5090014;28;20463;-67
2022/08/29 02:24:29;;;;;;;21.00;17.77;;;17.00;42.00;;;;;;5083885;28;20535;-66
2022/08/29 02:26:56;;;;;;;25.53;20.23;;;17.10;42.00;;;;;;5086808;28;20507;-67
2022/08/29 02:29:24;;;;;;;27.27;19.60;;;17.00;41.90;;;;;;5089725;28;20452;-67
2022/08/29 02:31:51;;;;;;;24.33;20.50;;;17.00;41.90;;;;;;5082824;28;20474;-67
2022/08/29 02:34:20;;;;;;;24.20;19.37;;;17.00;42.10;;;;;;5090082;28;20813;-67
2022/08/29 02:36:47;;;;;;;16.67;14.87;;;17.00;42.40;;;;;;5086371;28;20444;-67
2022/08/29 02:39:14;;;;;;;15.93;14.17;;;16.90;42.50;;;;;;5088692;28;20483;-67
2022/08/29 02:41:40;;;;;;;17.30;15.10;;;16.90;42.50;;;;;;5084734;28;20471;-67
2022/08/29 02:44:07;;;;;;;15.93;14.23;;;16.90;42.40;;;;;;5087622;28;20551;-66
2022/08/29 02:46:34;;;;;;;18.03;15.10;;;16.90;42.50;;;;;;5088399;28;20940;-68
2022/08/29 02:49:01;;;;;;;16.93;15.00;;;16.90;42.40;;;;;;5082862;28;20487;-68
2022/08/29 02:51:31;;;;;;;23.50;17.43;;;16.80;42.30;;;;;;5086267;28;20467;-68
2022/08/29 02:53:59;;;;;;;19.70;17.10;;;16.80;42.50;;;;;;5087002;28;20453;-68
2022/08/29 02:56:26;;;;;;;24.60;20.33;;;16.70;42.50;;;;;;5082892;28;20459;-68
2022/08/29 02:58:53;;;;;;;20.53;18.30;;;16.70;42.60;;;;;;5079739;28;20465;-69
2022/08/29 03:01:21;;;;;;;22.60;18.50;;;16.70;42.90;;;;;;5089662;28;20468;-70
2022/08/29 03:03:49;;;;;;;22.87;19.00;;;16.60;42.80;;;;;;5087105;28;20536;-67
2022/08/29 03:06:16;;;;;;;22.27;19.30;;;16.60;42.70;;;;;;5083033;28;20460;-67
2022/08/29 03:08:44;;;;;;;22.17;18.00;;;16.60;42.90;;;;;;5086411;28;20846;-69
2022/08/29 03:11:11;;;;;;;23.83;19.50;;;16.60;42.90;;;;;;5089403;28;20460;-67
2022/08/29 03:13:38;;;;;;;23.77;17.53;;;16.60;42.70;;;;;;5087112;28;20465;-67
2022/08/29 03:16:05;;;;;;;19.80;16.47;;;16.60;42.70;;;;;;5086340;28;20466;-67
2022/08/29 03:18:33;;;;;;;20.53;16.70;;;16.60;42.80;;;;;;5078430;28;20827;-67
2022/08/29 03:21:00;;;;;;;18.33;15.20;;;16.60;42.70;;;;;;5087366;28;21022;-68
2022/08/29 03:23:27;;;;;;;19.53;16.70;;;16.60;42.60;;;;;;5086525;28;20452;-69
2022/08/29 03:25:56;;;;;;;24.30;18.27;;;16.50;42.60;;;;;;5080404;28;20464;-67
2022/08/29 03:28:22;;;;;;;20.03;16.07;;;16.50;42.80;;;;;;5084371;28;20502;-67
2022/08/29 03:30:49;;;;;;;21.73;17.00;;;16.40;42.90;;;;;;5075923;28;20512;-68
2022/08/29 03:33:17;;;;;;;18.90;16.67;;;16.30;43.20;;;;;;5078213;28;20518;-68
2022/08/29 03:35:44;;;;;;;17.83;14.90;;;16.30;43.10;;;;;;5076418;28;20468;-66
2022/08/29 03:38:11;;;;;;;20.00;16.53;;;16.30;43.00;;;;;;5078282;28;20567;-66
2022/08/29 03:40:41;;;;;;;20.60;16.37;;;16.30;42.80;;;;;;5072630;28;20485;-67
2022/08/29 03:43:09;;;;;;;21.07;17.20;;;16.30;43.10;;;;;;5073620;28;20468;-68
2022/08/29 03:45:36;;;;;;;23.93;19.33;;;16.20;43.10;;;;;;5082671;28;20697;-69
2022/08/29 03:48:03;;;;;;;23.90;17.50;;;16.20;43.00;;;;;;5083432;28;20507;-68
2022/08/29 03:50:30;;;;;;;22.00;18.80;;;16.20;43.00;;;;;;5079720;28;20452;-71
2022/08/29 03:52:58;;;;;;;21.73;17.83;;;16.20;43.10;;;;;;5084259;28;20452;-70
2022/08/29 03:55:25;;;;;;;20.10;17.03;;;16.20;43.30;;;;;;5078664;28;20461;-69
2022/08/29 03:57:53;;;;;;;19.50;17.07;;;16.30;43.20;;;;;;5076318;28;20483;-68
2022/08/29 04:00:22;;;;;;;20.60;17.27;;;16.20;43.00;;;;;;5073135;28;20480;-68
2022/08/29 04:02:49;;;;;;;22.37;18.30;;;16.20;43.00;;;;;;5073193;28;20469;-69
2022/08/29 04:05:18;;;;;;;22.20;16.20;;;16.20;43.00;;;;;;5085671;28;20452;-70
2022/08/29 04:07:48;;;;;;;19.70;17.37;;;16.20;43.20;;;;;;5070179;28;20477;-70
2022/08/29 04:10:19;;;;;;;25.10;17.77;;;16.10;42.90;;;;;;5087371;28;20449;-70
2022/08/29 04:12:45;;;;;;;19.20;16.00;;;16.10;43.00;;;;;;5082290;28;20804;-70
2022/08/29 04:15:13;;;;;;;22.50;18.50;;;16.10;42.90;;;;;;5083448;28;20815;-69
2022/08/29 04:17:42;;;;;;;23.10;18.97;;;16.00;42.90;;;;;;5083042;28;20476;-70
2022/08/29 04:20:11;;;;;;;21.37;19.07;;;16.00;43.10;;;;;;5085854;28;20566;-70
2022/08/29 04:22:40;;;;;;;25.90;20.43;;;16.00;42.90;;;;;;5088035;28;20964;-70
2022/08/29 04:25:09;;;;;;;21.40;19.10;;;15.90;43.10;;;;;;5088624;28;20456;-70
2022/08/29 04:27:36;;;;;;;23.70;18.10;;;15.90;43.30;;;;;;5087266;28;20481;-70
2022/08/29 04:30:07;;;;;;;22.57;18.90;;;15.90;43.30;;;;;;5087863;28;20454;-69
2022/08/29 04:32:34;;;;;;;20.60;18.40;;;15.90;43.30;;;;;;5081034;28;20469;-69
2022/08/29 04:35:02;;;;;;;24.87;19.40;;;15.90;43.20;;;;;;5086736;28;20456;-69
2022/08/29 04:37:29;;;;;;;24.97;18.50;;;15.90;43.30;;;;;;5085472;28;20484;-69
2022/08/29 04:39:56;;;;;;;21.70;19.03;;;15.90;43.30;;;;;;5078199;28;20488;-68
2022/08/29 04:42:23;;;;;;;24.23;19.77;;;15.90;43.30;;;;;;5082160;28;20461;-69
2022/08/29 04:44:50;;;;;;;25.07;18.63;;;15.90;43.50;;;;;;5082439;28;20465;-69
2022/08/29 04:47:21;;;;;;;23.00;17.27;;;15.90;43.60;;;;;;5084321;28;20480;-70
2022/08/29 04:49:49;;;;;;;23.77;18.60;;;16.00;43.40;;;;;;5083754;28;20484;-71
2022/08/29 04:52:17;;;;;;;19.27;16.80;;;16.00;43.70;;;;;;5082595;28;20452;-69
2022/08/29 04:54:43;;;;;;;17.33;14.10;;;16.00;43.60;;;;;;5087495;28;20448;-69
2022/08/29 04:57:10;;;;;;;15.30;12.60;;;16.10;43.50;;;;;;5089178;28;20472;-69
2022/08/29 04:59:37;;;;;;;12.20;10.67;;;16.10;43.40;;;;;;5088044;28;20463;-69
2022/08/29 05:02:04;;;;;;;12.00;10.40;;;16.10;43.20;;;;;;5082272;28;20934;-69
2022/08/29 05:04:31;;;;;;;12.43;11.13;;;16.10;42.90;;;;;;5083506;28;20543;-69
2022/08/29 05:06:57;;;;;;;15.40;12.80;;;16.10;42.80;;;;;;5087644;28;20476;-69
2022/08/29 05:09:25;;;;;;;12.67;11.37;;;16.30;42.80;;;;;;5086208;28;20459;-69
2022/08/29 05:11:52;;;;;;;12.90;10.70;;;16.50;42.90;;;;;;5086391;28;20456;-71
2022/08/29 05:14:19;;;;;;;13.70;12.07;;;16.80;42.30;;;;;;5084118;28;20456;-70
2022/08/29 05:16:47;;;;;;;13.63;11.73;;;17.10;41.40;;;;;;5081720;28;20464;-71
2022/08/29 05:19:15;;;;;;;13.07;11.67;;;17.30;40.00;;;;;;5084399;28;20492;-71
2022/08/29 05:21:43;;;;;;;15.13;11.90;;;17.50;39.40;;;;;;5084704;28;20480;-70
2022/08/29 05:24:50;;;;;;;15.23;11.37;;;17.70;38.80;;;;;;5079821;28;20470;-72
2022/08/29 05:27:19;;;;;;;13.50;11.10;;;17.90;38.80;;;;;;5022139;28;20493;-69
2022/08/29 05:29:49;;;;;;;15.67;11.03;;;18.00;38.50;;;;;;5068810;28;20810;-69
2022/08/29 05:32:17;;;;;;;14.83;11.10;;;18.10;38.00;;;;;;5085703;28;20476;-70
2022/08/29 05:34:47;;;;;;;13.53;11.13;;;18.30;37.40;;;;;;5085261;28;20452;-69
2022/08/29 05:37:17;;;;;;;13.70;12.30;;;18.40;36.40;;;;;;5082061;28;20486;-69
2022/08/29 05:39:44;;;;;;;12.60;10.90;;;18.60;35.10;;;;;;5081606;28;20448;-69
2022/08/29 05:42:13;;;;;;;13.00;11.60;;;18.90;34.00;;;;;;5085323;28;20979;-69
2022/08/29 05:44:40;;;;;;;11.30;10.10;;;19.20;32.90;;;;;;5085919;28;20471;-69
2022/08/29 05:47:11;;;;;;;16.80;11.17;;;19.40;32.30;;;;;;5085364;28;20988;-69
2022/08/29 05:49:40;;;;;;;12.20;10.60;;;19.50;31.40;;;;;;5085200;28;20484;-69
2022/08/29 05:52:07;;;;;;;13.20;10.50;;;19.80;30.80;;;;;;5084451;28;20488;-69
2022/08/29 05:54:36;;;;;;;15.00;12.37;;;20.40;30.00;;;;;;5087557;28;20458;-69
2022/08/29 05:57:04;;;;;;;13.43;11.97;;;21.30;28.50;;;;;;5080189;28;20477;-69
2022/08/29 05:59:32;;;;;;;15.57;11.07;;;22.30;25.70;;;;;;5085568;28;20460;-69
2022/08/29 06:02:00;;;;;;;15.90;12.63;;;23.40;22.50;;;;;;5080879;28;20694;-70
2022/08/29 06:04:27;;;;;;;14.80;13.07;;;24.50;19.80;;;;;;5080897;28;20979;-70
2022/08/29 06:06:54;;;;;;;12.70;11.10;;;25.70;17.40;;;;;;5081232;28;20480;-70
2022/08/29 06:09:21;;;;;;;11.80;10.10;;;26.80;15.10;;;;;;5087230;28;20456;-70
2022/08/29 06:11:50;;;;;;;11.80;10.60;;;27.90;13.30;;;;;;5086174;28;20871;-71
2022/08/29 06:14:17;;;;;;;11.10;9.33;;;29.00;11.70;;;;;;5086374;28;20490;-70
2022/08/29 06:16:45;;;;;;;10.77;9.40;;;29.80;8.30;;;;;;5076322;28;20464;-71
2022/08/29 06:19:12;;;;;;;9.40;8.40;;;30.50;7.10;;;;;;5082608;28;20463;-70
2022/08/29 06:21:39;;;;;;;10.90;8.93;;;31.40;6.10;;;;;;5086575;28;20486;-70
2022/08/29 06:24:07;;;;;;;9.80;8.90;;;32.50;4.20;;;;;;5086913;28;20456;-69
2022/08/29 06:26:34;;;;;;;11.13;10.00;;;33.40;2.80;;;;;;5090358;28;20608;-70
2022/08/29 06:29:04;;;;;;;9.70;8.80;;;34.10;1.10;;;;;;5089709;28;20467;-70
2022/08/29 06:31:31;;;;;;;10.90;9.90;;;34.60;1.00;;;;;;5089880;28;20464;-70
2022/08/29 06:34:01;;;;;;;11.13;9.90;;;35.10;1.00;;;;;;5091126;28;20456;-70
2022/08/29 06:36:29;;;;;;;10.40;9.40;;;35.80;1.00;;;;;;5091157;28;20452;-70
2022/08/29 06:38:57;;;;;;;10.73;9.60;;;36.40;1.00;;;;;;5089656;28;20476;-70
2022/08/29 06:41:24;;;;;;;10.60;9.50;;;36.90;1.00;;;;;;5089877;28;20479;-70
2022/08/29 06:43:51;;;;;;;11.80;9.57;;;37.60;1.00;;;;;;5082494;28;20513;-71
2022/08/29 06:46:22;;;;;;;9.83;8.90;;;38.20;1.00;;;;;;5090347;28;20952;-70
2022/08/29 06:48:49;;;;;;;10.17;8.87;;;38.80;1.00;;;;;;5084112;28;20483;-69
2022/08/29 06:51:17;;;;;;;10.43;9.33;;;39.40;1.00;;;;;;5090180;28;20455;-69
2022/08/29 06:53:44;;;;;;;10.30;8.80;;;40.20;1.00;;;;;;5090299;28;20940;-69
2022/08/29 06:56:11;;;;;;;10.53;9.57;;;40.50;1.00;;;;;;5085043;28;20449;-69
2022/08/29 06:58:38;;;;;;;11.30;10.20;;;40.70;1.00;;;;;;5084858;28;20479;-69
2022/08/29 07:01:09;;;;;;;10.40;9.50;;;41.20;1.00;;;;;;5087642;28;20931;-71
2022/08/29 07:03:36;;;;;;;10.00;9.10;;;41.50;1.00;;;;;;5084512;28;20459;-69
2022/08/29 07:06:03;;;;;;;10.40;9.30;;;42.10;1.00;;;;;;5085585;28;20460;-69
2022/08/29 07:08:32;;;;;;;10.67;9.70;;;42.60;1.00;;;;;;5089900;28;20476;-69
2022/08/29 07:10:59;;;;;;;10.60;9.60;;;43.30;1.00;;;;;;5088510;28;21137;-69
2022/08/29 07:13:26;;;;;;;9.60;8.70;;;43.80;1.00;;;;;;5088813;28;20456;-70
2022/08/29 07:15:53;;;;;;;10.37;9.37;;;43.90;1.00;;;;;;5089889;28;20448;-70
2022/08/29 07:18:20;;;;;;;10.07;9.07;;;44.00;1.00;;;;;;5090046;28;20476;-69
2022/08/29 07:20:47;;;;;;;10.80;9.80;;;44.50;1.00;;;;;;5089061;28;20468;-70
2022/08/29 07:23:14;;;;;;;11.40;10.30;;;45.10;1.00;;;;;;5089974;28;20471;-70
2022/08/29 07:25:42;;;;;;;10.77;9.77;;;45.40;1.00;;;;;;5090027;28;20456;-70
2022/08/29 07:28:09;;;;;;;10.43;9.40;;;45.30;1.00;;;;;;5089942;28;20476;-70
2022/08/29 07:30:35;;;;;;;10.83;9.80;;;45.00;1.00;;;;;;5089309;28;20472;-71
2022/08/29 07:33:02;;;;;;;11.00;9.77;;;45.10;1.00;;;;;;5089334;28;20488;-70
2022/08/29 07:35:29;;;;;;;10.23;8.90;;;45.20;1.00;;;;;;5088859;28;20460;-70
2022/08/29 07:37:57;;;;;;;10.60;9.50;;;45.40;1.00;;;;;;5089591;28;20468;-70
2022/08/29 07:40:23;;;;;;;11.20;10.10;;;46.10;1.00;;;;;;5083867;28;20460;-70
2022/08/29 07:42:52;;;;;;;10.60;9.50;;;46.50;1.00;;;;;;5088761;28;20841;-70
2022/08/29 07:45:20;;;;;;;10.07;8.93;;;46.90;1.00;;;;;;5086604;28;20528;-70
2022/08/29 07:47:46;;;;;;;9.57;8.67;;;47.10;1.00;;;;;;5081554;28;20488;-70
2022/08/29 07:50:15;;;;;;;9.53;8.63;;;47.10;1.00;;;;;;5086598;28;20460;-69
2022/08/29 07:52:42;;;;;;;11.00;9.90;;;47.40;1.00;;;;;;5085721;28;20936;-70
2022/08/29 07:55:09;;;;;;;10.90;9.80;;;47.50;1.00;;;;;;5083228;28;20459;-70
2022/08/29 07:57:36;;;;;;;9.90;9.00;;;47.90;1.00;;;;;;5085100;28;20505;-70
2022/08/29 08:00:07;;;;;;;9.83;8.90;;;47.90;1.00;;;;;;5086147;28;20460;-70
2022/08/29 08:02:34;;;;;;;10.17;9.00;;;48.30;1.00;;;;;;5087024;28;20502;-70
2022/08/29 08:05:01;;;;;;;9.63;8.73;;;48.40;1.00;;;;;;5088879;28;20460;-70
2022/08/29 08:07:28;;;;;;;9.00;8.20;;;49.00;1.00;;;;;;5089181;28;20476;-70
2022/08/29 08:09:55;;;;;;;11.17;9.80;;;49.60;1.00;;;;;;5088029;28;20458;-70
2022/08/29 08:12:24;;;;;;;9.60;8.70;;;50.10;1.00;;;;;;5088740;28;20452;-70
2022/08/29 08:14:51;;;;;;;9.23;8.33;;;49.80;1.00;;;;;;5088418;28;20456;-70
2022/08/29 08:17:19;;;;;;;9.33;8.43;;;49.60;1.00;;;;;;5083456;28;20474;-67
2022/08/29 08:19:46;;;;;;;8.87;7.97;;;50.00;1.00;;;;;;5087883;28;20448;-69
2022/08/29 08:22:13;;;;;;;9.50;8.47;;;50.20;1.00;;;;;;5089031;28;20510;-69
2022/08/29 08:24:39;;;;;;;10.63;8.10;;;50.20;1.00;;;;;;5087711;28;20480;-70
2022/08/29 08:27:06;;;;;;;9.07;8.17;;;50.30;1.00;;;;;;5088153;28;20483;-70
2022/08/29 08:29:33;;;;;;;9.67;8.20;;;50.80;1.00;;;;;;5086915;28;20474;-70
2022/08/29 08:32:00;;;;;;;9.57;8.53;;;51.40;1.00;;;;;;5086745;28;20464;-69
2022/08/29 08:34:29;;;;;;;9.40;8.50;;;51.60;1.00;;;;;;5086022;28;20456;-69
2022/08/29 08:36:55;;;;;;;8.90;7.13;;;51.90;1.00;;;;;;5085159;28;20456;-70
2022/08/29 08:39:22;;;;;;;9.00;7.43;;;52.00;1.00;;;;;;5086469;28;20838;-69
2022/08/29 08:41:55;;;;;;;9.87;8.67;;;52.30;1.00;;;;;;5088565;28;20502;-69
2022/08/29 08:44:52;;;;;;;8.13;7.40;;;52.40;1.00;;;;;;5086300;28;20455;-69
2022/08/29 08:47:24;;;;;;;8.80;7.90;;;53.00;1.00;;;;;;5083758;28;20485;-69
2022/08/29 08:49:58;;;;;;;7.97;7.17;;;53.30;1.00;;;;;;5088517;28;20455;-69
2022/08/29 08:52:32;;;;;;;8.63;6.33;;;53.70;1.00;;;;;;5084961;28;20457;-68
2022/08/29 08:55:02;;;;;;;7.57;6.70;;;53.80;1.00;;;;;;5078807;28;21005;-68
2022/08/29 08:57:38;;;;;;;7.63;6.03;;;53.50;1.00;;;;;;5085836;28;20529;-69
2022/08/29 09:00:08;;;;;;;7.93;7.13;;;52.90;1.00;;;;;;5084603;28;20455;-69
2022/08/29 09:02:41;;;;;;;10.00;9.00;;;53.10;1.00;;;;;;5076238;28;20556;-69
2022/08/29 09:05:26;;;;;;;9.57;8.63;;;52.80;1.00;;;;;;5081539;28;20963;-69
2022/08/29 09:08:02;;;;;;;8.33;7.43;;;52.20;1.00;;;;;;5077799;28;20532;-69
2022/08/29 09:10:40;;;;;;;8.70;7.80;;;51.00;1.00;;;;;;5082216;28;20566;-68
2022/08/29 09:13:17;;;;;;;9.40;8.50;;;49.20;1.00;;;;;;5087604;28;20443;-68
2022/08/29 09:15:47;;;;;;;7.90;7.10;;;49.30;1.00;;;;;;5086828;28;20499;-69
2022/08/29 09:18:21;;;;;;;9.00;7.30;;;49.80;1.00;;;;;;5082421;28;20476;-69
2022/08/29 09:20:50;;;;;;;9.90;7.23;;;50.00;1.00;;;;;;5085983;28;20451;-70
2022/08/29 09:23:22;;;;;;;8.27;6.60;;;49.50;1.00;;;;;;5086024;28;20819;-73
2022/08/29 09:25:51;;;;;;;7.03;6.30;;;49.50;1.00;;;;;;5080416;28;20962;-69
2022/08/29 09:28:18;;;;;;;7.70;5.70;;;49.00;1.00;;;;;;5086365;28;20468;-69
2022/08/29 09:31:15;;;;;;;6.90;5.43;;;49.50;1.00;;;;;;5080623;28;20464;-69
2022/08/29 09:33:46;;;;;;;7.37;5.53;;;50.40;1.00;;;;;;5085669;28;20452;-68
2022/08/29 09:36:15;;;;;;;6.93;5.00;;;50.70;1.00;;;;;;5079194;28;20464;-69
2022/08/29 09:38:42;;;;;;;8.30;6.10;;;51.50;1.00;;;;;;5080609;28;20483;-69
2022/08/29 09:41:10;;;;;;;6.13;4.77;;;51.00;1.00;;;;;;5084819;28;20456;-68
2022/08/29 09:43:48;;;;;;;8.07;5.37;;;50.80;1.00;;;;;;5085639;28;20456;-69
2022/08/29 09:46:19;;;;;;;7.60;5.13;;;51.40;1.00;;;;;;5085340;28;20582;-69
2022/08/29 09:48:48;;;;;;;9.70;6.23;;;51.50;1.00;;;;;;5077297;28;20910;-69
2022/08/29 09:51:28;;;;;;;7.40;5.50;;;51.90;1.00;;;;;;5082985;28;20481;-69
2022/08/29 09:54:12;;;;;;;6.17;4.77;;;49.60;1.00;;;;;;5077438;28;20463;-70
2022/08/29 09:56:48;;;;;;;7.33;6.10;;;47.50;1.00;;;;;;5081707;28;20448;-69
2022/08/29 09:59:24;;;;;;;10.97;7.37;;;45.80;1.00;;;;;;5083027;28;20459;-69
2022/08/29 10:02:10;;;;;;;9.10;6.30;;;44.70;1.00;;;;;;5077867;28;20476;-68
2022/08/29 10:04:40;;;;;;;10.00;5.87;;;44.60;1.00;;;;;;5088589;28;20458;-70
2022/08/29 10:07:16;;;;;;;5.77;4.70;;;46.10;1.00;;;;;;5084839;28;20558;-70
2022/08/29 10:09:54;;;;;;;10.63;6.73;;;48.10;1.00;;;;;;5086081;28;20955;-69
2022/08/29 10:12:28;;;;;;;7.83;6.70;;;49.30;1.00;;;;;;5085959;28;20477;-70
2022/08/29 10:15:02;;;;;;;7.70;5.20;;;49.50;1.00;;;;;;5090980;28;20871;-68
2022/08/29 10:20:22;;;;;;;6.83;5.80;;;50.90;1.00;;;;;;5088008;28;20489;-69
2022/08/29 10:22:59;;;;;;;7.30;5.20;;;51.40;1.00;;;;;;5092942;28;20444;-69
2022/08/29 10:25:35;;;;;;;7.07;6.00;;;49.40;1.00;;;;;;5090547;28;20463;-69
2022/08/29 10:28:11;;;;;;;8.23;5.23;;;48.40;1.00;;;;;;5082165;28;21023;-68
2022/08/29 10:30:45;;;;;;;4.50;3.50;;;48.00;1.00;;;;;;5089172;28;20666;-68
2022/08/29 10:33:25;;;;;;;7.70;4.70;;;49.20;1.00;;;;;;5077703;28;20477;-68
2022/08/29 10:35:57;;;;;;;6.27;4.50;;;50.30;1.00;;;;;;5085567;28;20464;-68
2022/08/29 10:38:43;;;;;;;6.00;4.07;;;51.20;1.00;;;;;;5079681;28;20494;-69
2022/08/29 10:41:25;;;;;;;6.97;5.50;;;51.40;1.00;;;;;;5089142;28;20444;-69
2022/08/29 10:44:01;;;;;;;7.97;5.90;;;49.50;1.00;;;;;;5084123;28;21109;-69
2022/08/29 10:46:53;;;;;;;7.37;5.40;;;46.30;1.00;;;;;;5085678;28;20879;-69
2022/08/29 10:49:29;;;;;;;8.03;5.27;;;43.80;1.00;;;;;;5084536;28;20448;-70
2022/08/29 10:52:05;;;;;;;11.40;5.60;;;45.00;1.00;;;;;;5078613;28;20480;-69
2022/08/29 10:54:45;;;;;;;6.90;4.97;;;46.60;1.00;;;;;;5086095;28;20448;-69
2022/08/29 10:57:21;;;;;;;5.43;4.07;;;47.00;1.00;;;;;;5086151;28;20475;-69
2022/08/29 11:00:03;;;;;;;7.37;4.37;;;46.40;1.00;;;;;;5089839;28;20459;-68
2022/08/29 11:02:34;;;;;;;5.77;3.73;;;45.40;1.00;;;;;;5089284;28;20464;-69
2022/08/29 11:05:11;;;;;;;7.50;4.97;;;44.00;1.00;;;;;;5087346;28;20460;-69
2022/08/29 11:07:45;;;;;;;8.20;4.67;;;42.60;1.00;;;;;;5089580;28;20476;-69
2022/08/29 11:10:17;;;;;;;6.17;4.33;;;41.40;1.00;;;;;;5087697;28;20460;-68
2022/08/29 11:12:51;;;;;;;7.87;4.40;;;40.30;1.00;;;;;;5088988;28;20500;-68
2022/08/29 11:15:24;;;;;;;6.83;4.70;;;39.30;1.00;;;;;;5087751;28;20959;-69
2022/08/29 11:18:04;;;;;;;9.90;4.50;;;38.50;1.00;;;;;;5089764;28;20476;-69
2022/08/29 11:20:35;;;;;;;7.63;4.97;;;37.70;1.00;;;;;;5087287;28;20517;-70
2022/08/29 11:23:08;;;;;;;6.60;4.63;;;36.80;1.00;;;;;;5083279;28;20455;-69
2022/08/29 11:25:40;;;;;;;8.60;4.80;;;35.90;1.00;;;;;;5082738;28;20479;-70
2022/08/29 11:28:19;;;;;;;7.17;5.53;;;35.00;1.00;;;;;;5083721;28;20472;-70
2022/08/29 11:30:53;;;;;;;6.30;4.60;;;34.40;1.00;;;;;;5086365;28;20471;-70
2022/08/29 11:33:31;;;;;;;6.50;5.10;;;33.70;1.00;;;;;;5084631;28;20480;-69
2022/08/29 11:36:11;;;;;;;8.40;4.97;;;33.20;1.00;;;;;;5082820;28;20449;-69
2022/08/29 11:39:00;;;;;;;6.17;4.83;;;32.90;1.00;;;;;;5086972;28;20472;-69
2022/08/29 11:41:32;;;;;;;10.93;5.63;;;32.70;1.00;;;;;;5085324;28;20459;-69
2022/08/29 11:44:11;;;;;;;10.60;5.17;;;32.60;1.10;;;;;;5086963;28;20455;-69
2022/08/29 11:46:41;;;;;;;11.00;5.47;;;32.40;1.90;;;;;;5085499;28;20448;-69
2022/08/29 11:49:32;;;;;;;7.50;6.20;;;32.20;1.80;;;;;;5083292;28;20460;-69
2022/08/29 11:52:12;;;;;;;6.93;5.07;;;31.90;1.80;;;;;;5087552;28;20476;-68
2022/08/29 11:54:49;;;;;;;8.10;5.07;;;31.60;2.40;;;;;;5088861;28;20499;-70
2022/08/29 11:57:45;;;;;;;8.80;5.33;;;31.30;2.50;;;;;;5085326;28;20521;-69
2022/08/29 12:00:31;;;;;;;6.87;4.73;;;31.20;3.30;;;;;;5088016;28;20943;-69
2022/08/29 12:02:58;;;;;;;6.10;4.50;;;31.10;4.00;;;;;;5084493;28;20974;-68
2022/08/29 12:05:52;;;;;;;7.10;5.93;;;31.10;4.30;;;;;;5086981;28;21215;-69
2022/08/29 12:08:30;;;;;;;7.13;5.30;;;30.80;2.00;;;;;;5086232;28;20479;-69
2022/08/29 12:10:57;;;;;;;8.40;5.30;;;30.50;2.60;;;;;;5088013;28;20497;-68
2022/08/29 12:14:02;;;;;;;6.03;4.60;;;30.40;3.10;;;;;;5082924;28;20476;-71
2022/08/29 12:16:48;;;;;;;9.47;5.80;;;30.20;4.00;;;;;;5022838;28;20454;-69
2022/08/29 12:19:46;;;;;;;8.83;5.20;;;30.10;5.00;;;;;;5081566;28;20944;-69
2022/08/29 12:22:44;;;;;;;5.73;4.47;;;30.00;4.60;;;;;;5083459;28;20444;-69
2022/08/29 12:25:32;;;;;;;6.60;4.90;;;29.90;3.80;;;;;;5081076;28;20449;-70
2022/08/29 12:28:02;;;;;;;8.10;4.77;;;29.70;4.00;;;;;;5085365;28;20480;-69
2022/08/29 12:30:35;;;;;;;6.43;4.63;;;29.60;2.80;;;;;;5086943;28;20455;-69
2022/08/29 12:33:16;;;;;;;7.40;4.90;;;29.50;4.50;;;;;;5087875;28;20963;-69
2022/08/29 12:36:11;;;;;;;9.00;5.10;;;29.50;7.00;;;;;;5080231;28;20456;-69
2022/08/29 12:38:49;;;;;;;8.10;4.57;;;29.50;6.20;;;;;;5065544;28;20488;-69
2022/08/29 12:41:39;;;;;;;7.13;4.37;;;29.40;4.20;;;;;;5087648;28;20861;-69
2022/08/29 12:44:11;;;;;;;7.30;4.67;;;29.30;3.00;;;;;;5077162;28;20448;-69
2022/08/29 12:46:42;;;;;;;6.00;4.53;;;29.10;3.00;;;;;;5087156;28;20459;-69
2022/08/29 12:49:19;;;;;;;9.33;5.63;;;29.00;4.20;;;;;;5081530;28;20460;-69
2022/08/29 12:51:53;;;;;;;8.07;4.73;;;28.90;3.70;;;;;;5075336;28;20459;-69
2022/08/29 12:54:31;;;;;;;7.73;5.20;;;28.80;4.20;;;;;;5087020;28;20478;-69
2022/08/29 12:56:58;;;;;;;6.90;5.03;;;28.70;6.40;;;;;;5080206;28;20890;-70
2022/08/29 12:59:25;;;;;;;6.10;4.80;;;28.70;6.40;;;;;;5080802;28;20465;-69
2022/08/29 13:01:56;;;;;;;6.23;4.47;;;28.80;6.60;;;;;;5083463;28;20483;-69
2022/08/29 13:04:26;;;;;;;4.97;3.23;;;28.90;4.70;;;;;;5083480;28;20459;-69